createdAt,value
2019-02-28T00:00:40.713Z,35.17
2019-02-28T00:03:10.842Z,38.63
2019-02-28T00:05:41.280Z,41.97
2019-02-28T00:08:11.672Z,45.87
2019-02-28T00:10:42.318Z,52.50
2019-02-28T00:13:12.712Z,55.97
2019-02-28T00:15:43.113Z,61.70
2019-02-28T00:18:15.193Z,86.47
2019-02-28T00:20:45.629Z,84.67
2019-02-28T00:23:16.044Z,76.77
2019-02-28T00:25:46.487Z,76.30
2019-02-28T00:28:16.933Z,75.27
2019-02-28T00:30:47.338Z,68.97
2019-02-28T00:33:17.741Z,63.67
2019-02-28T00:35:48.141Z,62.37
2019-02-28T00:38:18.552Z,47.37
2019-02-28T00:40:48.941Z,48.77
2019-02-28T00:43:19.361Z,42.27
2019-02-28T00:45:51.467Z,36.03
2019-02-28T00:48:22.403Z,40.10
2019-02-28T00:50:52.868Z,33.57
2019-02-28T00:53:23.270Z,33.73
2019-02-28T00:55:53.660Z,35.60
2019-02-28T00:58:28.869Z,34.43
2019-02-28T01:00:58.969Z,36.13
2019-02-28T01:03:29.357Z,32.47
2019-02-28T01:05:59.778Z,34.87
2019-02-28T01:08:30.170Z,34.40
2019-02-28T01:11:00.593Z,36.77
2019-02-28T01:13:30.979Z,36.63
2019-02-28T01:16:01.418Z,34.80
2019-02-28T01:18:34.433Z,31.83
2019-02-28T01:21:03.868Z,30.20
2019-02-28T01:23:34.253Z,33.60
2019-02-28T01:26:04.639Z,30.53
2019-02-28T01:28:35.027Z,29.47
2019-02-28T01:31:05.461Z,32.17
2019-02-28T01:33:35.822Z,32.90
2019-02-28T01:36:06.300Z,33.73
2019-02-28T01:38:36.670Z,28.70
2019-02-28T01:41:08.310Z,30.17
2019-02-28T01:43:39.184Z,31.00
2019-02-28T01:46:09.604Z,30.63
2019-02-28T01:48:40.034Z,32.53
2019-02-28T01:51:10.444Z,29.73
2019-02-28T01:53:40.865Z,29.90
2019-02-28T01:56:11.287Z,29.57
2019-02-28T01:58:41.674Z,29.23
2019-02-28T02:01:12.073Z,29.87
2019-02-28T02:03:42.455Z,29.67
2019-02-28T02:06:12.829Z,29.00
2019-02-28T02:08:43.220Z,28.23
2019-02-28T02:11:13.662Z,27.40
2019-02-28T02:13:44.090Z,25.97
2019-02-28T02:16:14.462Z,23.50
2019-02-28T02:18:44.827Z,24.80
2019-02-28T02:21:15.217Z,22.37
2019-02-28T02:23:49.672Z,22.03
2019-02-28T02:26:19.064Z,23.00
2019-02-28T02:28:49.466Z,26.00
2019-02-28T02:31:19.858Z,29.10
2019-02-28T02:33:52.454Z,30.20
2019-02-28T02:36:22.389Z,33.70
2019-02-28T02:38:52.801Z,30.07
2019-02-28T02:41:23.203Z,34.50
2019-02-28T02:43:54.979Z,31.10
2019-02-28T02:46:27.362Z,29.00
2019-02-28T02:48:57.851Z,30.57
2019-02-28T02:51:28.283Z,27.10
2019-02-28T02:53:58.717Z,25.43
2019-02-28T02:56:29.153Z,25.03
2019-02-28T02:59:01.140Z,24.20
2019-02-28T03:01:31.604Z,22.80
2019-02-28T03:04:02.060Z,22.10
2019-02-28T03:06:32.496Z,23.70
2019-02-28T03:09:04.998Z,21.97
2019-02-28T03:11:35.437Z,24.17
2019-02-28T03:14:05.837Z,22.87
2019-02-28T03:16:36.229Z,22.70
2019-02-28T03:19:06.646Z,22.33
2019-02-28T03:21:37.027Z,23.17
2019-02-28T03:24:07.414Z,23.20
2019-02-28T03:26:41.583Z,22.10
2019-02-28T03:29:09.940Z,20.00
2019-02-28T03:31:40.338Z,21.60
2019-02-28T03:34:13.792Z,22.80
2019-02-28T03:36:42.818Z,23.77
2019-02-28T03:39:13.241Z,23.07
2019-02-28T03:41:43.690Z,23.70
2019-02-28T03:44:20.030Z,21.67
2019-02-28T03:46:47.978Z,18.00
2019-02-28T03:49:18.433Z,18.63
2019-02-28T03:51:48.866Z,16.23
2019-02-28T03:54:19.321Z,16.40
2019-02-28T03:56:52.699Z,16.73
2019-02-28T03:59:21.893Z,16.77
2019-02-28T04:01:52.328Z,17.13
2019-02-28T04:04:22.713Z,17.53
2019-02-28T04:06:53.128Z,19.07
2019-02-28T04:09:25.102Z,18.60
2019-02-28T04:11:55.494Z,19.87
2019-02-28T04:14:28.255Z,19.87
2019-02-28T04:16:58.029Z,18.60
2019-02-28T04:19:28.463Z,17.97
2019-02-28T04:21:59.768Z,18.97
2019-02-28T04:24:30.202Z,22.17
2019-02-28T04:27:06.265Z,27.90
2019-02-28T04:29:32.661Z,29.37
2019-02-28T04:32:03.150Z,31.17
2019-02-28T04:34:33.570Z,29.03
2019-02-28T04:37:03.987Z,26.50
2019-02-28T04:39:34.428Z,28.13
2019-02-28T04:42:05.172Z,25.33
2019-02-28T04:44:36.499Z,25.87
2019-02-28T04:47:07.653Z,22.30
2019-02-28T04:49:38.124Z,22.37
2019-02-28T04:52:11.767Z,22.70
2019-02-28T04:54:41.293Z,22.47
2019-02-28T04:57:11.774Z,20.57
2019-02-28T04:59:43.422Z,20.17
2019-02-28T05:02:13.844Z,23.33
2019-02-28T05:04:44.297Z,19.70
2019-02-28T05:07:14.751Z,21.77
2019-02-28T05:09:48.035Z,23.03
2019-02-28T05:12:17.308Z,19.63
2019-02-28T05:14:47.703Z,20.73
2019-02-28T05:17:19.317Z,20.60
2019-02-28T05:19:50.267Z,20.97
2019-02-28T05:22:20.688Z,20.10
2019-02-28T05:24:51.090Z,20.90
2019-02-28T05:27:24.423Z,20.33
2019-02-28T05:29:55.007Z,23.63
2019-02-28T05:32:25.412Z,21.73
2019-02-28T05:34:55.840Z,25.17
2019-02-28T05:37:26.341Z,24.60
2019-02-28T05:40:05.622Z,25.63
2019-02-28T05:42:31.694Z,27.17
2019-02-28T05:45:02.131Z,27.50
2019-02-28T05:47:45.766Z,29.33
2019-02-28T05:50:15.196Z,28.50
2019-02-28T05:52:43.992Z,28.20
2019-02-28T05:55:14.400Z,31.70
2019-02-28T05:57:46.495Z,22.87
2019-02-28T06:00:18.494Z,31.37
2019-02-28T06:02:48.934Z,29.13
2019-02-28T06:05:20.929Z,28.07
2019-02-28T06:07:51.332Z,21.57
2019-02-28T06:10:24.663Z,23.00
2019-02-28T06:12:53.835Z,21.30
2019-02-28T06:15:25.752Z,20.93
2019-02-28T06:17:56.279Z,19.57
2019-02-28T06:20:26.714Z,18.67
2019-02-28T06:22:57.106Z,18.77
2019-02-28T06:25:27.530Z,18.73
2019-02-28T06:27:57.979Z,20.00
2019-02-28T06:30:28.500Z,20.33
2019-02-28T06:32:59.543Z,19.87
2019-02-28T06:35:30.051Z,19.73
2019-02-28T06:38:00.487Z,20.13
2019-02-28T06:40:33.118Z,21.63
2019-02-28T06:43:03.020Z,21.70
2019-02-28T06:45:36.720Z,22.03
2019-02-28T06:48:05.528Z,22.23
2019-02-28T06:50:35.971Z,20.37
2019-02-28T06:53:06.379Z,22.53
2019-02-28T06:55:38.393Z,19.23
2019-02-28T06:58:08.816Z,18.63
2019-02-28T07:00:39.215Z,13.50
2019-02-28T07:03:10.670Z,14.77
2019-02-28T07:05:41.050Z,16.00
2019-02-28T07:08:13.736Z,17.00
2019-02-28T07:10:44.912Z,18.87
2019-02-28T07:13:16.299Z,18.47
2019-02-28T07:15:46.719Z,14.90
2019-02-28T07:18:18.920Z,18.20
2019-02-28T07:20:49.330Z,17.60
2019-02-28T07:23:22.184Z,17.53
2019-02-28T07:25:52.562Z,17.93
2019-02-28T07:28:22.964Z,16.70
2019-02-28T07:30:54.418Z,16.50
2019-02-28T07:33:24.870Z,16.37
2019-02-28T07:36:09.583Z,16.60
2019-02-28T07:38:40.723Z,17.87
2019-02-28T07:41:11.199Z,16.80
2019-02-28T07:43:45.911Z,16.47
2019-02-28T07:46:15.458Z,15.27
2019-02-28T07:48:46.044Z,16.23
2019-02-28T07:51:18.470Z,15.43
2019-02-28T07:53:49.102Z,16.17
2019-02-28T07:56:19.531Z,15.30
2019-02-28T07:58:50.030Z,15.47
2019-02-28T08:01:20.435Z,16.03
2019-02-28T08:03:50.963Z,16.63
2019-02-28T08:06:21.558Z,17.17
2019-02-28T08:08:54.702Z,16.80
2019-02-28T08:11:25.338Z,17.80
2019-02-28T08:13:55.848Z,14.87
2019-02-28T08:16:30.594Z,14.20
2019-02-28T08:19:01.390Z,16.30
2019-02-28T08:21:31.793Z,17.60
2019-02-28T08:24:02.552Z,17.17
2019-02-28T08:26:34.570Z,19.83
2019-02-28T08:29:07.971Z,20.20
2019-02-28T08:31:37.325Z,19.67
2019-02-28T08:34:10.734Z,21.83
2019-02-28T08:36:43.849Z,21.63
2019-02-28T08:39:16.196Z,25.07
2019-02-28T08:41:47.199Z,24.97
2019-02-28T08:44:23.956Z,19.67
2019-02-28T08:46:54.607Z,25.33
2019-02-28T08:49:25.041Z,23.10
2019-02-28T08:51:55.667Z,18.53
2019-02-28T08:54:27.213Z,17.83
2019-02-28T08:56:58.129Z,14.40
2019-02-28T08:59:28.604Z,15.63
2019-02-28T09:01:59.068Z,9.50
2019-02-28T09:04:29.658Z,11.57
2019-02-28T09:07:00.226Z,10.57
2019-02-28T09:09:31.679Z,8.70
2019-02-28T09:12:02.985Z,7.13
2019-02-28T09:14:33.494Z,5.97
2019-02-28T09:17:03.852Z,7.40
2019-02-28T09:19:36.059Z,5.47
2019-02-28T09:22:06.288Z,7.23
2019-02-28T09:24:36.688Z,5.47
2019-02-28T09:27:07.214Z,6.23
2019-02-28T09:29:37.639Z,8.10
2019-02-28T09:32:10.291Z,9.30
2019-02-28T09:34:41.318Z,9.20
2019-02-28T09:37:11.847Z,8.47
2019-02-28T09:39:42.306Z,8.43
2019-02-28T09:42:15.702Z,8.10
2019-02-28T09:44:46.312Z,8.10
2019-02-28T09:47:16.865Z,7.57
2019-02-28T09:49:48.005Z,8.10
2019-02-28T09:52:18.563Z,9.33
2019-02-28T09:54:49.038Z,9.60
2019-02-28T09:57:19.874Z,7.73
2019-02-28T09:59:52.082Z,8.90
2019-02-28T10:02:25.259Z,7.17
2019-02-28T10:04:55.704Z,7.37
2019-02-28T10:07:26.535Z,9.53
2019-02-28T10:09:57.585Z,8.17
2019-02-28T10:12:28.017Z,9.20
2019-02-28T10:15:00.542Z,9.20
2019-02-28T10:17:32.370Z,8.63
2019-02-28T10:20:11.421Z,8.93
2019-02-28T10:22:44.327Z,8.53
2019-02-28T10:25:14.659Z,8.50
2019-02-28T10:27:48.659Z,9.50
2019-02-28T10:30:31.236Z,12.60
2019-02-28T10:32:58.745Z,14.00
2019-02-28T10:35:29.156Z,13.03
2019-02-28T10:37:59.609Z,14.33
2019-02-28T10:40:30.969Z,10.33
2019-02-28T10:43:01.451Z,10.43
2019-02-28T10:45:31.851Z,12.57
2019-02-28T10:48:07.446Z,14.77
2019-02-28T10:50:42.256Z,15.40
2019-02-28T10:53:13.071Z,12.80
2019-02-28T10:55:43.586Z,11.93
2019-02-28T10:58:15.466Z,12.67
2019-02-28T11:00:46.631Z,12.73
2019-02-28T11:03:17.341Z,12.90
2019-02-28T11:05:53.327Z,10.70
2019-02-28T11:08:21.726Z,15.37
2019-02-28T11:10:56.595Z,13.73
2019-02-28T11:13:28.505Z,14.77
2019-02-28T11:15:59.359Z,15.17
2019-02-28T11:18:32.351Z,14.13
2019-02-28T11:21:02.863Z,15.77
2019-02-28T11:23:33.366Z,15.93
2019-02-28T11:26:06.523Z,13.30
2019-02-28T11:28:35.979Z,15.57
2019-02-28T11:31:06.525Z,16.70
2019-02-28T11:33:41.095Z,17.17
2019-02-28T11:36:11.761Z,17.00
2019-02-28T11:38:43.913Z,18.40
2019-02-28T11:41:18.578Z,18.83
2019-02-28T11:43:54.373Z,17.80
2019-02-28T11:46:25.227Z,17.37
2019-02-28T11:48:56.985Z,17.10
2019-02-28T11:51:27.649Z,16.57
2019-02-28T11:53:59.699Z,17.63
2019-02-28T11:56:30.135Z,16.63
2019-02-28T11:59:00.545Z,16.63
2019-02-28T12:01:30.946Z,15.13
2019-02-28T12:04:02.930Z,22.70
2019-02-28T12:06:34.269Z,18.77
2019-02-28T12:09:06.349Z,18.67
2019-02-28T12:11:37.220Z,14.97
2019-02-28T12:14:07.772Z,12.77
2019-02-28T12:16:41.513Z,15.70
2019-02-28T12:19:12.469Z,14.27
2019-02-28T12:22:14.730Z,14.97
2019-02-28T12:24:21.023Z,15.97
2019-02-28T12:26:55.293Z,12.80
2019-02-28T12:29:27.585Z,13.93
2019-02-28T12:31:58.964Z,14.27
2019-02-28T12:34:34.528Z,13.87
2019-02-28T12:37:05.005Z,15.50
2019-02-28T12:39:37.098Z,15.80
2019-02-28T12:42:09.233Z,14.27
2019-02-28T12:44:39.785Z,15.10
2019-02-28T12:47:10.295Z,14.93
2019-02-28T12:49:41.240Z,15.90
2019-02-28T12:52:14.608Z,15.43
2019-02-28T12:54:44.023Z,15.17
2019-02-28T12:57:14.438Z,17.87
2019-02-28T12:59:45.996Z,15.33
2019-02-28T13:02:17.153Z,15.13
2019-02-28T13:04:49.143Z,15.30
2019-02-28T13:07:20.280Z,15.63
2019-02-28T13:09:51.452Z,13.93
2019-02-28T13:12:23.608Z,15.07
2019-02-28T13:14:54.818Z,15.03
2019-02-28T13:17:25.319Z,13.90
2019-02-28T13:19:56.718Z,15.37
2019-02-28T13:22:29.503Z,15.10
2019-02-28T13:25:00.934Z,15.00
2019-02-28T13:27:32.181Z,18.00
2019-02-28T13:30:05.359Z,17.00
2019-02-28T13:32:38.133Z,16.27
2019-02-28T13:35:10.199Z,15.13
2019-02-28T13:37:44.822Z,18.63
2019-02-28T13:40:16.255Z,19.50
2019-02-28T13:42:46.902Z,16.60
2019-02-28T13:45:23.073Z,16.10
2019-02-28T13:47:50.982Z,15.03
2019-02-28T13:50:29.587Z,17.13
2019-02-28T13:53:02.618Z,17.93
2019-02-28T13:55:32.350Z,16.73
2019-02-28T13:58:03.816Z,14.93
2019-02-28T14:00:35.823Z,16.93
2019-02-28T14:03:10.527Z,16.70
2019-02-28T14:05:41.741Z,19.40
2019-02-28T14:08:12.686Z,17.47
2019-02-28T14:10:44.716Z,15.27
2019-02-28T14:13:15.314Z,17.30
2019-02-28T14:15:52.699Z,16.90
2019-02-28T14:18:20.322Z,18.40
2019-02-28T14:20:51.072Z,16.97
2019-02-28T14:23:21.774Z,17.73
2019-02-28T14:25:52.200Z,16.60
2019-02-28T14:28:22.627Z,17.80
2019-02-28T14:30:57.562Z,17.77
2019-02-28T14:33:25.317Z,16.67
2019-02-28T14:35:56.023Z,18.93
2019-02-28T14:38:29.557Z,19.90
2019-02-28T14:40:59.413Z,20.27
2019-02-28T14:43:29.994Z,22.43
2019-02-28T14:46:00.423Z,21.67
2019-02-28T14:48:30.933Z,23.27
2019-02-28T14:51:03.669Z,21.37
2019-02-28T14:53:33.688Z,23.13
2019-02-28T14:56:07.428Z,22.87
2019-02-28T14:58:38.007Z,23.40
2019-02-28T15:01:08.813Z,24.90
2019-02-28T15:03:39.323Z,24.57
2019-02-28T15:06:09.982Z,24.83
2019-02-28T15:08:40.475Z,25.73
2019-02-28T15:11:11.525Z,26.03
2019-02-28T15:13:41.963Z,25.80
2019-02-28T15:16:13.773Z,27.53
2019-02-28T15:18:47.134Z,27.83
2019-02-28T15:21:16.469Z,27.97
2019-02-28T15:23:48.478Z,27.97
2019-02-28T15:26:18.935Z,27.93
2019-02-28T15:28:49.541Z,28.40
2019-02-28T15:31:20.106Z,30.73
2019-02-28T15:33:50.608Z,29.47
2019-02-28T15:36:24.164Z,29.47
2019-02-28T15:38:54.759Z,30.33
2019-02-28T15:41:25.447Z,28.70
2019-02-28T15:43:56.042Z,31.37
2019-02-28T15:46:29.487Z,30.50
2019-02-28T15:48:59.889Z,31.47
2019-02-28T15:51:30.408Z,30.03
2019-02-28T15:54:01.070Z,29.87
2019-02-28T15:56:31.494Z,31.50
2019-02-28T15:59:03.489Z,39.97
2019-02-28T16:01:37.234Z,43.30
2019-02-28T16:04:07.872Z,45.03
2019-02-28T16:06:38.368Z,31.73
2019-02-28T16:09:11.519Z,30.57
2019-02-28T16:11:43.135Z,29.63
2019-02-28T16:14:14.776Z,30.00
2019-02-28T16:16:45.590Z,29.40
2019-02-28T16:19:18.898Z,30.97
2019-02-28T16:21:48.255Z,30.00
2019-02-28T16:24:18.682Z,28.83
2019-02-28T16:26:56.765Z,31.93
2019-02-28T16:29:35.484Z,32.47
2019-02-28T16:32:05.998Z,33.93
2019-02-28T16:34:38.737Z,33.73
2019-02-28T16:37:10.246Z,34.60
2019-02-28T16:39:40.744Z,32.37
2019-02-28T16:42:14.651Z,33.07
2019-02-28T16:44:46.866Z,34.83
2019-02-28T16:47:17.332Z,32.03
2019-02-28T16:49:49.051Z,33.60
2019-02-28T16:52:19.506Z,30.27
2019-02-28T16:54:50.026Z,32.27
2019-02-28T16:57:22.724Z,32.60
2019-02-28T16:59:53.193Z,33.17
2019-02-28T17:02:26.434Z,30.43
2019-02-28T17:04:59.670Z,30.13
2019-02-28T17:07:30.365Z,29.20
2019-02-28T17:10:01.692Z,26.60
2019-02-28T17:12:36.225Z,27.03
2019-02-28T17:15:12.523Z,26.50
2019-02-28T17:17:46.953Z,27.10
2019-02-28T17:20:16.871Z,26.83
2019-02-28T17:22:47.362Z,25.90
2019-02-28T17:25:18.497Z,26.40
2019-02-28T17:27:51.594Z,24.10
2019-02-28T17:30:36.245Z,24.43
2019-02-28T17:33:09.880Z,23.97
2019-02-28T17:35:47.826Z,23.37
2019-02-28T17:38:22.103Z,23.30
2019-02-28T17:40:53.496Z,24.33
2019-02-28T17:43:25.255Z,24.70
2019-02-28T17:45:55.810Z,23.47
2019-02-28T17:49:02.451Z,23.97
2019-02-28T17:52:01.065Z,21.83
2019-02-28T17:54:37.734Z,25.97
2019-02-28T17:57:18.476Z,23.87
2019-02-28T18:00:16.138Z,23.60
2019-02-28T18:03:20.346Z,21.43
2019-02-28T18:06:11.937Z,22.27
2019-02-28T18:08:49.847Z,22.90
2019-02-28T18:11:51.414Z,24.53
2019-02-28T18:14:31.211Z,21.80
2019-02-28T18:17:38.300Z,22.67
2019-02-28T18:20:20.937Z,21.57
2019-02-28T18:23:04.659Z,21.23
2019-02-28T18:25:41.149Z,21.23
2019-02-28T18:28:18.936Z,22.80
2019-02-28T18:31:09.672Z,22.87
2019-02-28T18:33:45.127Z,20.60
2019-02-28T18:36:18.056Z,23.03
2019-02-28T18:38:51.271Z,21.40
2019-02-28T18:41:29.274Z,21.60
2019-02-28T18:44:03.307Z,22.73
2019-02-28T18:46:31.920Z,21.93
2019-02-28T18:49:02.314Z,19.50
2019-02-28T18:51:32.719Z,21.07
2019-02-28T18:54:04.332Z,20.67
2019-02-28T18:56:34.861Z,21.50
2019-02-28T18:59:05.269Z,21.30
2019-02-28T19:01:37.286Z,22.30
2019-02-28T19:04:07.792Z,23.20
2019-02-28T19:06:39.204Z,22.73
2019-02-28T19:09:23.104Z,22.70
2019-02-28T19:11:53.638Z,23.87
2019-02-28T19:14:25.427Z,22.50
2019-02-28T19:16:55.896Z,23.03
2019-02-28T19:19:28.457Z,23.97
2019-02-28T19:22:01.850Z,23.20
2019-02-28T19:24:35.240Z,24.90
2019-02-28T19:27:07.179Z,22.13
2019-02-28T19:29:37.689Z,22.23
2019-02-28T19:32:08.388Z,23.10
2019-02-28T19:34:38.813Z,23.07
2019-02-28T19:37:09.319Z,23.47
2019-02-28T19:39:39.767Z,23.90
2019-02-28T19:42:11.782Z,23.57
2019-02-28T19:44:43.752Z,24.83
2019-02-28T19:47:14.209Z,22.90
2019-02-28T19:49:44.626Z,27.17
2019-02-28T19:52:15.071Z,25.63
2019-02-28T19:54:45.558Z,26.37
2019-02-28T19:57:15.999Z,25.77
2019-02-28T19:59:46.410Z,27.43
2019-02-28T20:02:20.073Z,26.33
2019-02-28T20:04:50.540Z,26.00
2019-02-28T20:07:20.985Z,24.87
2019-02-28T20:09:53.251Z,24.53
2019-02-28T20:12:23.693Z,24.13
2019-02-28T20:14:54.135Z,23.50
2019-02-28T20:17:24.682Z,23.80
2019-02-28T20:19:55.740Z,21.27
2019-02-28T20:22:26.263Z,24.37
2019-02-28T20:24:58.160Z,21.60
2019-02-28T20:27:30.175Z,23.37
2019-02-28T20:30:02.233Z,23.33
2019-02-28T20:32:32.619Z,24.37
2019-02-28T20:35:03.098Z,23.17
2019-02-28T20:37:33.537Z,24.53
2019-02-28T20:40:06.142Z,23.83
2019-02-28T20:42:36.584Z,22.60
2019-02-28T20:45:10.170Z,22.30
2019-02-28T20:47:40.565Z,22.97
2019-02-28T20:50:14.198Z,21.47
2019-02-28T20:52:44.621Z,21.63
2019-02-28T20:55:15.044Z,21.23
2019-02-28T20:57:46.445Z,20.90
2019-02-28T21:00:19.325Z,21.73
2019-02-28T21:02:51.496Z,19.80
2019-02-28T21:05:24.787Z,21.40
2019-02-28T21:07:56.681Z,20.17
2019-02-28T21:10:27.236Z,20.13
2019-02-28T21:12:57.700Z,21.30
2019-02-28T21:15:28.077Z,21.93
2019-02-28T21:17:58.519Z,21.80
2019-02-28T21:20:31.706Z,23.50
2019-02-28T21:23:02.063Z,23.77
2019-02-28T21:25:32.602Z,25.27
2019-02-28T21:28:04.580Z,23.23
2019-02-28T21:30:35.032Z,25.13
2019-02-28T21:33:05.490Z,24.90
2019-02-28T21:35:35.873Z,24.83
2019-02-28T21:38:06.369Z,26.37
2019-02-28T21:40:36.788Z,26.77
2019-02-28T21:43:07.172Z,26.80
2019-02-28T21:45:37.574Z,27.93
2019-02-28T21:48:07.969Z,26.90
2019-02-28T21:50:38.423Z,27.17
2019-02-28T21:53:08.894Z,24.63
2019-02-28T21:55:39.339Z,24.47
2019-02-28T21:58:09.759Z,25.60
2019-02-28T22:00:40.214Z,24.33
2019-02-28T22:03:10.663Z,22.87
2019-02-28T22:05:41.046Z,22.50
2019-02-28T22:08:11.446Z,22.40
2019-02-28T22:10:41.858Z,21.33
2019-02-28T22:13:14.733Z,21.60
2019-02-28T22:15:45.140Z,20.27
2019-02-28T22:18:15.533Z,20.47
2019-02-28T22:20:45.952Z,19.50
2019-02-28T22:23:16.382Z,19.50
2019-02-28T22:25:46.795Z,19.87
2019-02-28T22:28:17.240Z,19.93
2019-02-28T22:30:49.159Z,19.60
2019-02-28T22:33:37.164Z,20.03
2019-02-28T22:36:14.912Z,21.07
2019-02-28T22:38:46.908Z,20.13
2019-02-28T22:41:17.287Z,20.80
2019-02-28T22:43:47.714Z,20.40
2019-02-28T22:46:18.164Z,21.50
2019-02-28T22:48:48.569Z,19.10
2019-02-28T22:51:18.951Z,18.90
2019-02-28T22:53:49.424Z,21.00
2019-02-28T22:56:19.789Z,18.97
2019-02-28T22:58:50.214Z,18.90
2019-02-28T23:01:24.069Z,16.87
2019-02-28T23:03:56.936Z,17.07
2019-02-28T23:06:27.349Z,15.83
2019-02-28T23:08:57.752Z,17.90
2019-02-28T23:11:28.195Z,18.00
2019-02-28T23:13:58.597Z,18.60
2019-02-28T23:16:29.038Z,18.20
2019-02-28T23:18:59.422Z,18.40
2019-02-28T23:21:29.842Z,20.87
2019-02-28T23:24:00.284Z,20.23
2019-02-28T23:26:30.689Z,21.47
2019-02-28T23:29:04.225Z,23.07
2019-02-28T23:31:49.676Z,22.90
2019-02-28T23:34:26.165Z,21.50
2019-02-28T23:36:56.570Z,22.80
2019-02-28T23:39:27.000Z,22.00
2019-02-28T23:41:57.434Z,23.03
2019-02-28T23:44:27.826Z,22.83
2019-02-28T23:46:58.227Z,22.07
2019-02-28T23:49:28.612Z,21.73
2019-02-28T23:51:59.018Z,23.37
2019-02-28T23:54:29.431Z,24.47
2019-02-28T23:56:59.823Z,23.53
2019-02-28T23:59:30.270Z,24.10
